createdAt,value
2019-05-11T00:00:32.692Z,983.39
2019-05-11T00:01:32.615Z,983.38
2019-05-11T00:02:32.539Z,983.41
2019-05-11T00:03:32.462Z,983.42
2019-05-11T00:04:32.385Z,983.38
2019-05-11T00:05:32.309Z,983.35
2019-05-11T00:06:32.233Z,983.34
2019-05-11T00:07:32.158Z,983.32
2019-05-11T00:08:32.080Z,983.29
2019-05-11T00:09:32.005Z,983.29
2019-05-11T00:10:31.927Z,983.27
2019-05-11T00:11:34.474Z,983.29
2019-05-11T00:12:31.778Z,983.30
2019-05-11T00:13:31.700Z,983.30
2019-05-11T00:14:31.622Z,983.34
2019-05-11T00:15:31.546Z,983.37
2019-05-11T00:16:31.469Z,983.34
2019-05-11T00:17:31.495Z,983.34
2019-05-11T00:18:31.318Z,983.33
2019-05-11T00:19:31.252Z,983.29
2019-05-11T00:20:31.164Z,983.32
2019-05-11T00:21:31.122Z,983.32
2019-05-11T00:22:31.012Z,983.32
2019-05-11T00:23:30.936Z,983.33
2019-05-11T00:24:30.874Z,983.32
2019-05-11T00:25:30.782Z,983.27
2019-05-11T00:26:30.707Z,983.30
2019-05-11T00:27:30.631Z,983.29
2019-05-11T00:28:30.611Z,983.29
2019-05-11T00:29:30.483Z,983.26
2019-05-11T00:30:30.401Z,983.29
2019-05-11T00:31:30.327Z,983.28
2019-05-11T00:32:30.249Z,983.30
2019-05-11T00:33:30.173Z,983.26
2019-05-11T00:34:30.095Z,983.27
2019-05-11T00:35:30.020Z,983.31
2019-05-11T00:36:29.944Z,983.31
2019-05-11T00:37:29.869Z,983.30
2019-05-11T00:38:29.791Z,983.34
2019-05-11T00:39:29.720Z,983.35
2019-05-11T00:40:29.637Z,983.37
2019-05-11T00:41:29.561Z,983.35
2019-05-11T00:42:29.483Z,983.38
2019-05-11T00:43:29.416Z,983.37
2019-05-11T00:49:28.940Z,983.09
2019-05-11T00:50:38.636Z,983.03
2019-05-11T00:51:28.783Z,982.99
2019-05-11T00:52:28.707Z,982.98
2019-05-11T00:53:28.631Z,982.94
2019-05-11T00:54:28.661Z,982.89
2019-05-11T00:55:28.478Z,982.88
2019-05-11T00:56:28.400Z,982.85
2019-05-11T00:57:28.327Z,982.81
2019-05-11T00:58:28.246Z,982.76
2019-05-11T00:59:28.271Z,982.69
2019-05-11T01:00:28.099Z,982.69
2019-05-11T01:01:28.016Z,982.67
2019-05-11T01:02:27.939Z,982.63
2019-05-11T01:03:27.866Z,982.61
2019-05-11T01:04:27.801Z,982.61
2019-05-11T01:05:27.722Z,982.63
2019-05-11T01:06:27.631Z,982.60
2019-05-11T01:07:27.555Z,982.64
2019-05-11T01:08:27.479Z,982.68
2019-05-11T01:09:27.402Z,982.64
2019-05-11T01:10:41.060Z,982.59
2019-05-11T01:11:27.250Z,982.56
2019-05-11T01:12:27.173Z,982.54
2019-05-11T01:13:27.096Z,982.45
2019-05-11T01:14:27.019Z,982.44
2019-05-11T01:15:26.959Z,982.39
2019-05-11T01:16:26.866Z,982.36
2019-05-11T01:17:26.793Z,982.33
2019-05-11T01:18:26.717Z,982.33
2019-05-11T01:19:26.636Z,982.25
2019-05-11T01:20:26.574Z,982.29
2019-05-11T01:21:26.483Z,982.29
2019-05-11T01:22:26.407Z,982.28
2019-05-11T01:23:26.329Z,982.26
2019-05-11T01:24:26.254Z,982.25
2019-05-11T01:25:26.177Z,982.21
2019-05-11T01:26:26.157Z,982.24
2019-05-11T01:27:26.023Z,982.21
2019-05-11T01:28:25.947Z,982.22
2019-05-11T01:29:25.870Z,982.22
2019-05-11T01:30:25.792Z,982.21
2019-05-11T01:31:25.715Z,982.20
2019-05-11T01:32:25.690Z,982.19
2019-05-11T01:33:25.570Z,982.15
2019-05-11T01:34:25.489Z,982.09
2019-05-11T01:35:25.411Z,982.09
2019-05-11T01:36:25.331Z,982.07
2019-05-11T01:37:25.256Z,982.03
2019-05-11T01:38:25.228Z,982.06
2019-05-11T01:39:25.103Z,982.04
2019-05-11T01:40:25.027Z,982.05
2019-05-11T01:41:24.949Z,982.01
2019-05-11T01:42:24.880Z,982.05
2019-05-11T01:43:24.795Z,982.03
2019-05-11T01:44:24.829Z,982.02
2019-05-11T01:45:24.643Z,981.98
2019-05-11T01:46:24.565Z,981.97
2019-05-11T01:47:24.490Z,981.94
2019-05-11T01:48:24.432Z,981.93
2019-05-11T01:49:24.339Z,981.95
2019-05-11T01:50:24.259Z,982.00
2019-05-11T01:51:24.182Z,981.98
2019-05-11T01:52:24.106Z,982.00
2019-05-11T01:53:24.123Z,982.05
2019-05-11T01:54:23.952Z,982.08
2019-05-11T01:55:23.876Z,982.11
2019-05-11T01:56:23.798Z,982.11
2019-05-11T01:57:23.726Z,982.11
2019-05-11T01:58:23.689Z,982.07
2019-05-11T01:59:23.568Z,982.09
2019-05-11T02:00:23.493Z,982.05
2019-05-11T02:01:23.417Z,982.07
2019-05-11T02:02:23.338Z,982.09
2019-05-11T02:03:23.263Z,982.08
2019-05-11T02:04:23.189Z,982.05
2019-05-11T02:05:23.109Z,982.04
2019-05-11T02:06:23.032Z,982.01
2019-05-11T02:07:22.962Z,981.99
2019-05-11T02:08:22.880Z,981.91
2019-05-11T02:09:22.805Z,981.85
2019-05-11T02:10:22.728Z,981.82
2019-05-11T02:11:22.650Z,981.81
2019-05-11T02:12:22.575Z,981.74
2019-05-11T02:13:22.499Z,981.70
2019-05-11T02:14:22.422Z,981.61
2019-05-11T02:15:22.342Z,981.55
2019-05-11T02:16:22.268Z,981.51
2019-05-11T02:17:22.190Z,981.50
2019-05-11T02:18:22.113Z,981.44
2019-05-11T02:19:22.037Z,981.44
2019-05-11T02:20:21.960Z,981.32
2019-05-11T02:21:21.885Z,981.31
2019-05-11T02:22:21.806Z,981.26
2019-05-11T02:23:21.731Z,981.22
2019-05-11T02:24:21.654Z,981.26
2019-05-11T02:25:21.578Z,981.21
2019-05-11T02:26:21.506Z,981.16
2019-05-11T02:27:21.423Z,981.11
2019-05-11T02:28:21.348Z,981.13
2019-05-11T02:29:21.271Z,981.07
2019-05-11T02:30:21.197Z,981.06
2019-05-11T02:31:21.119Z,981.04
2019-05-11T02:32:21.040Z,981.01
2019-05-11T02:33:20.964Z,981.02
2019-05-11T02:34:20.914Z,981.06
2019-05-11T02:35:20.810Z,981.04
2019-05-11T02:36:20.740Z,980.98
2019-05-11T02:37:20.661Z,980.98
2019-05-11T02:38:20.580Z,980.92
2019-05-11T02:39:20.503Z,980.92
2019-05-11T02:40:20.437Z,980.91
2019-05-11T02:41:35.640Z,981.03
2019-05-11T02:42:20.273Z,981.10
2019-05-11T02:43:20.196Z,981.19
2019-05-11T02:44:20.121Z,981.28
2019-05-11T02:45:20.047Z,981.30
2019-05-11T02:46:19.969Z,981.28
2019-05-11T02:47:19.888Z,981.24
2019-05-11T02:48:19.817Z,981.30
2019-05-11T02:49:19.737Z,981.27
2019-05-11T02:50:19.658Z,981.29
2019-05-11T02:51:19.590Z,981.23
2019-05-11T02:52:19.505Z,981.21
2019-05-11T02:53:19.429Z,981.16
2019-05-11T02:54:19.349Z,981.09
2019-05-11T02:55:19.273Z,981.09
2019-05-11T02:56:19.248Z,981.06
2019-05-11T02:57:19.121Z,981.03
2019-05-11T02:58:19.049Z,981.02
2019-05-11T02:59:18.966Z,981.01
2019-05-11T03:00:18.890Z,981.00
2019-05-11T03:01:18.812Z,981.03
2019-05-11T03:02:18.741Z,981.09
2019-05-11T03:03:18.657Z,981.11
2019-05-11T03:04:18.583Z,981.10
2019-05-11T03:05:18.504Z,981.10
2019-05-11T03:06:18.425Z,981.10
2019-05-11T03:07:18.350Z,981.09
2019-05-11T03:08:18.277Z,981.06
2019-05-11T03:09:18.198Z,981.10
2019-05-11T03:10:20.740Z,981.11
2019-05-11T03:11:18.043Z,981.11
2019-05-11T03:12:17.967Z,981.07
2019-05-11T03:13:17.888Z,981.08
2019-05-11T03:14:17.811Z,981.07
2019-05-11T03:15:17.735Z,981.04
2019-05-11T03:16:17.658Z,981.05
2019-05-11T03:17:17.581Z,981.03
2019-05-11T03:18:17.507Z,980.98
2019-05-11T03:19:17.431Z,980.97
2019-05-11T03:20:17.350Z,980.92
2019-05-11T03:21:17.273Z,980.90
2019-05-11T03:22:17.195Z,980.91
2019-05-11T03:23:17.121Z,980.89
2019-05-11T03:24:17.046Z,980.85
2019-05-11T03:25:17.016Z,980.85
2019-05-11T03:26:16.912Z,980.83
2019-05-11T03:27:16.818Z,980.79
2019-05-11T03:28:16.735Z,980.79
2019-05-11T03:29:16.657Z,980.76
2019-05-11T03:30:16.582Z,980.80
2019-05-11T03:31:16.506Z,980.76
2019-05-11T03:32:16.542Z,980.71
2019-05-11T03:33:16.351Z,980.68
2019-05-11T03:34:16.274Z,980.67
2019-05-11T03:35:16.196Z,980.59
2019-05-11T03:36:16.120Z,980.62
2019-05-11T03:37:16.043Z,980.56
2019-05-11T03:38:15.973Z,980.58
2019-05-11T03:39:15.892Z,980.58
2019-05-11T03:40:15.813Z,980.56
2019-05-11T03:41:15.825Z,980.61
2019-05-11T03:42:15.698Z,980.55
2019-05-11T03:43:15.581Z,980.53
2019-05-11T03:44:15.505Z,980.52
2019-05-11T03:45:15.435Z,980.52
2019-05-11T03:46:15.354Z,980.56
2019-05-11T03:47:15.272Z,980.50
2019-05-11T03:48:15.204Z,980.49
2019-05-11T03:49:15.119Z,980.49
2019-05-11T03:50:15.042Z,980.44
2019-05-11T03:51:14.962Z,980.37
2019-05-11T03:52:14.887Z,980.39
2019-05-11T03:53:14.821Z,980.43
2019-05-11T03:54:14.732Z,980.37
2019-05-11T03:55:14.655Z,980.43
2019-05-11T03:56:14.578Z,980.41
2019-05-11T03:57:14.512Z,980.39
2019-05-11T03:58:14.424Z,980.36
2019-05-11T03:59:14.355Z,980.32
2019-05-11T04:00:14.275Z,980.31
2019-05-11T04:01:14.194Z,980.27
2019-05-11T04:02:14.114Z,980.27
2019-05-11T04:03:14.039Z,980.28
2019-05-11T04:04:16.617Z,980.28
2019-05-11T04:05:13.885Z,980.35
2019-05-11T04:06:13.806Z,980.36
2019-05-11T04:07:13.730Z,980.38
2019-05-11T04:08:13.755Z,980.45
2019-05-11T04:09:13.582Z,980.45
2019-05-11T04:10:13.507Z,980.51
2019-05-11T04:11:13.423Z,980.45
2019-05-11T04:12:32.927Z,980.45
2019-05-11T04:13:13.267Z,980.46
2019-05-11T04:14:13.194Z,980.45
2019-05-11T04:15:13.119Z,980.39
2019-05-11T04:16:13.045Z,980.41
2019-05-11T04:17:12.959Z,980.40
2019-05-11T04:18:12.882Z,980.32
2019-05-11T04:19:12.807Z,980.27
2019-05-11T04:20:12.729Z,980.27
2019-05-11T04:21:12.652Z,980.25
2019-05-11T04:22:12.573Z,980.26
2019-05-11T04:23:12.498Z,980.25
2019-05-11T04:24:12.420Z,980.20
2019-05-11T04:25:12.357Z,980.19
2019-05-11T04:26:12.264Z,980.14
2019-05-11T04:27:12.188Z,980.17
2019-05-11T04:28:12.111Z,980.19
2019-05-11T04:29:12.041Z,980.22
2019-05-11T04:30:11.955Z,980.24
2019-05-11T04:31:11.881Z,980.24
2019-05-11T04:32:11.802Z,980.22
2019-05-11T04:33:11.732Z,980.22
2019-05-11T04:34:11.648Z,980.26
2019-05-11T04:35:11.570Z,980.23
2019-05-11T04:36:11.494Z,980.31
2019-05-11T04:37:11.417Z,980.30
2019-05-11T04:38:11.338Z,980.31
2019-05-11T04:39:11.263Z,980.31
2019-05-11T04:40:11.185Z,980.28
2019-05-11T04:41:11.110Z,980.21
2019-05-11T04:42:11.030Z,980.17
2019-05-11T04:43:10.954Z,980.14
2019-05-11T04:44:10.879Z,980.17
2019-05-11T04:45:10.800Z,980.18
2019-05-11T04:46:10.723Z,980.19
2019-05-11T04:47:10.649Z,980.25
2019-05-11T04:48:10.569Z,980.26
2019-05-11T04:49:10.501Z,980.24
2019-05-11T04:50:10.420Z,980.18
2019-05-11T04:51:10.386Z,980.09
2019-05-11T04:52:10.260Z,980.12
2019-05-11T04:53:10.183Z,980.13
2019-05-11T04:54:10.113Z,980.10
2019-05-11T04:55:10.038Z,980.11
2019-05-11T04:56:09.954Z,980.13
2019-05-11T04:57:09.877Z,980.09
2019-05-11T04:58:09.799Z,980.09
2019-05-11T04:59:09.723Z,980.06
2019-05-11T05:00:09.650Z,980.00
2019-05-11T05:01:09.569Z,980.02
2019-05-11T05:02:09.493Z,980.02
2019-05-11T05:03:10.049Z,980.04
2019-05-11T05:04:14.465Z,980.08
2019-05-11T05:05:09.265Z,980.09
2019-05-11T05:06:21.750Z,980.12
2019-05-11T05:07:10.678Z,980.11
2019-05-11T05:08:10.106Z,980.11
2019-05-11T05:09:09.012Z,980.07
2019-05-11T05:10:08.876Z,980.06
2019-05-11T05:11:08.818Z,980.10
2019-05-11T05:12:14.151Z,980.10
2019-05-11T05:13:10.923Z,980.06
2019-05-11T05:14:10.241Z,980.06
2019-05-11T05:15:08.490Z,980.07
2019-05-11T05:16:08.414Z,980.09
2019-05-11T05:17:08.338Z,980.01
2019-05-11T05:18:08.261Z,980.06
2019-05-11T05:19:08.183Z,980.03
2019-05-11T05:20:08.108Z,980.03
2019-05-11T05:21:08.029Z,980.03
2019-05-11T05:22:07.951Z,980.01
2019-05-11T05:23:07.875Z,980.01
2019-05-11T05:24:07.799Z,980.00
2019-05-11T05:25:07.722Z,980.01
2019-05-11T05:26:07.645Z,980.00
2019-05-11T05:27:07.567Z,980.05
2019-05-11T05:28:07.493Z,980.05
2019-05-11T05:29:07.416Z,980.05
2019-05-11T05:30:07.587Z,980.06
2019-05-11T05:31:07.261Z,980.04
2019-05-11T05:32:07.184Z,980.06
2019-05-11T05:33:07.107Z,980.04
2019-05-11T05:34:07.034Z,980.04
2019-05-11T05:35:06.954Z,980.09
2019-05-11T05:36:06.879Z,980.07
2019-05-11T05:37:06.801Z,980.09
2019-05-11T05:38:06.924Z,980.08
2019-05-11T05:39:08.803Z,980.07
2019-05-11T05:40:06.571Z,980.03
2019-05-11T05:41:06.495Z,980.02
2019-05-11T05:42:06.421Z,980.03
2019-05-11T05:43:06.343Z,980.11
2019-05-11T05:44:06.265Z,980.14
2019-05-11T05:45:06.192Z,980.08
2019-05-11T05:46:06.111Z,980.13
2019-05-11T05:47:06.040Z,980.10
2019-05-11T05:48:06.054Z,980.12
2019-05-11T05:49:05.884Z,980.10
2019-05-11T05:50:05.816Z,980.13
2019-05-11T05:51:05.731Z,980.10
2019-05-11T05:52:05.859Z,980.10
2019-05-11T05:53:05.581Z,980.10
2019-05-11T05:54:05.530Z,980.11
2019-05-11T05:55:05.427Z,980.11
2019-05-11T05:56:05.354Z,980.12
2019-05-11T05:57:05.276Z,980.16
2019-05-11T05:58:05.199Z,980.13
2019-05-11T05:59:05.124Z,980.17
2019-05-11T06:00:05.049Z,980.14
2019-05-11T06:01:04.972Z,980.11
2019-05-11T06:02:04.923Z,980.10
2019-05-11T06:03:04.821Z,980.12
2019-05-11T06:04:04.745Z,980.11
2019-05-11T06:05:04.670Z,980.13
2019-05-11T06:06:04.594Z,980.14
2019-05-11T06:07:04.518Z,980.17
2019-05-11T06:08:04.441Z,980.17
2019-05-11T06:09:04.366Z,980.11
2019-05-11T06:10:04.290Z,980.11
2019-05-11T06:11:04.213Z,980.09
2019-05-11T06:12:04.140Z,980.08
2019-05-11T06:13:04.064Z,980.04
2019-05-11T06:14:03.989Z,979.96
2019-05-11T06:15:03.914Z,980.00
2019-05-11T06:16:03.836Z,980.03
2019-05-11T06:17:03.761Z,980.00
2019-05-11T06:18:03.685Z,979.99
2019-05-11T06:19:03.613Z,980.04
2019-05-11T06:20:04.060Z,980.07
2019-05-11T06:21:03.458Z,980.12
2019-05-11T06:22:03.400Z,980.12
2019-05-11T06:23:03.307Z,980.07
2019-05-11T06:24:06.660Z,980.12
2019-05-11T06:25:03.161Z,980.09
2019-05-11T06:26:03.081Z,980.13
2019-05-11T06:27:03.008Z,980.16
2019-05-11T06:28:02.930Z,980.09
2019-05-11T06:29:02.857Z,980.09
2019-05-11T06:30:02.779Z,980.11
2019-05-11T06:31:02.709Z,980.12
2019-05-11T06:32:02.631Z,980.13
2019-05-11T06:33:02.554Z,980.15
2019-05-11T06:34:02.476Z,980.14
2019-05-11T06:35:02.602Z,980.12
2019-05-11T06:36:02.328Z,980.13
2019-05-11T06:37:02.250Z,980.15
2019-05-11T06:38:02.176Z,980.18
2019-05-11T06:39:02.099Z,980.15
2019-05-11T06:40:02.030Z,980.10
2019-05-11T06:41:01.946Z,980.10
2019-05-11T06:42:01.872Z,980.14
2019-05-11T06:43:01.796Z,980.06
2019-05-11T06:44:02.453Z,980.02
2019-05-11T06:45:01.650Z,980.07
2019-05-11T06:46:01.568Z,980.09
2019-05-11T06:47:01.493Z,980.13
2019-05-11T06:48:01.419Z,980.12
2019-05-11T06:49:01.342Z,980.09
2019-05-11T06:50:01.268Z,980.05
2019-05-11T06:51:01.193Z,980.06
2019-05-11T06:52:01.116Z,980.07
2019-05-11T06:53:01.041Z,980.09
2019-05-11T06:54:00.966Z,980.13
2019-05-11T06:55:00.893Z,980.11
2019-05-11T06:56:00.816Z,980.17
2019-05-11T06:57:00.741Z,980.14
2019-05-11T06:58:00.664Z,980.08
2019-05-11T06:59:00.589Z,980.11
2019-05-11T07:00:00.515Z,980.07
2019-05-11T07:01:00.455Z,980.11
2019-05-11T07:02:00.363Z,980.08
2019-05-11T07:03:00.288Z,980.15
2019-05-11T07:04:00.213Z,980.13
2019-05-11T07:05:00.139Z,980.15
2019-05-11T07:06:00.065Z,980.16
2019-05-11T07:06:59.993Z,980.08
2019-05-11T07:07:59.913Z,980.09
2019-05-11T07:08:59.837Z,980.14
2019-05-11T07:09:59.768Z,980.13
2019-05-11T07:10:59.687Z,980.12
2019-05-11T07:11:59.661Z,980.14
2019-05-11T07:12:59.538Z,980.05
2019-05-11T07:13:59.470Z,980.09
2019-05-11T07:14:59.386Z,980.10
2019-05-11T07:15:59.312Z,980.10
2019-05-11T07:16:59.237Z,980.07
2019-05-11T07:17:59.201Z,980.14
2019-05-11T07:18:59.089Z,980.13
2019-05-11T07:19:59.012Z,980.11
2019-05-11T07:20:58.939Z,980.19
2019-05-11T07:21:58.863Z,980.10
2019-05-11T07:22:58.788Z,980.13
2019-05-11T07:23:58.715Z,980.10
2019-05-11T07:24:58.708Z,980.13
2019-05-11T07:26:00.235Z,980.16
2019-05-11T07:26:58.492Z,980.13
2019-05-11T07:27:58.423Z,980.19
2019-05-11T07:28:58.345Z,980.15
2019-05-11T07:29:58.268Z,980.15
2019-05-11T07:30:58.197Z,980.12
2019-05-11T07:32:05.532Z,980.14
2019-05-11T07:33:00.769Z,980.13
2019-05-11T07:33:58.763Z,980.13
2019-05-11T07:34:57.900Z,980.11
2019-05-11T07:35:58.377Z,980.11
2019-05-11T07:36:57.787Z,980.08
2019-05-11T07:37:58.258Z,980.09
2019-05-11T07:38:58.136Z,980.11
2019-05-11T07:39:58.150Z,980.13
2019-05-11T07:40:58.213Z,980.04
2019-05-11T07:41:58.457Z,980.12
2019-05-11T07:42:58.980Z,980.12
2019-05-11T07:43:59.021Z,980.09
2019-05-11T07:44:58.231Z,980.14
2019-05-11T07:45:58.433Z,980.08
2019-05-11T07:46:58.714Z,980.10
2019-05-11T07:47:59.030Z,980.05
2019-05-11T07:48:58.486Z,980.07
2019-05-11T07:49:57.941Z,980.09
2019-05-11T07:50:58.457Z,980.06
2019-05-11T07:51:58.713Z,979.92
2019-05-11T07:52:58.783Z,979.97
2019-05-11T07:53:57.840Z,980.05
2019-05-11T07:54:57.985Z,980.06
2019-05-11T07:55:57.749Z,980.07
2019-05-11T07:56:58.382Z,979.86
2019-05-11T07:57:58.414Z,980.12
2019-05-11T07:58:58.061Z,980.14
2019-05-11T07:59:57.859Z,980.08
2019-05-11T08:00:58.155Z,980.07
2019-05-11T08:01:58.145Z,979.95
2019-05-11T08:02:58.306Z,980.00
2019-05-11T08:03:55.758Z,979.97
2019-05-11T08:04:55.682Z,980.01
2019-05-11T08:05:55.607Z,979.93
2019-05-11T08:06:55.537Z,980.00
2019-05-11T08:07:55.460Z,980.03
2019-05-11T08:08:55.385Z,979.99
2019-05-11T08:09:55.311Z,979.88
2019-05-11T08:10:55.236Z,979.94
2019-05-11T08:11:55.162Z,979.97
2019-05-11T08:12:55.089Z,979.92
2019-05-11T08:13:55.013Z,979.88
2019-05-11T08:15:02.625Z,979.89
2019-05-11T08:15:54.868Z,979.89
2019-05-11T08:16:54.798Z,979.84
2019-05-11T08:17:54.717Z,979.91
2019-05-11T08:18:54.641Z,980.02
2019-05-11T08:19:54.568Z,980.02
2019-05-11T08:20:54.494Z,980.07
2019-05-11T08:21:54.424Z,980.07
2019-05-11T08:22:54.346Z,980.12
2019-05-11T08:23:54.271Z,980.18
2019-05-11T08:24:54.197Z,980.18
2019-05-11T08:25:54.545Z,980.15
2019-05-11T08:26:54.047Z,980.18
2019-05-11T08:27:53.973Z,980.25
2019-05-11T08:28:53.898Z,980.27
2019-05-11T08:29:53.823Z,980.28
2019-05-11T08:30:53.753Z,980.34
2019-05-11T08:31:53.674Z,980.44
2019-05-11T08:32:53.600Z,980.42
2019-05-11T08:33:53.524Z,980.46
2019-05-11T08:34:53.450Z,980.50
2019-05-11T08:35:53.375Z,980.53
2019-05-11T08:36:53.300Z,980.60
2019-05-11T08:37:53.227Z,980.49
2019-05-11T08:38:53.151Z,980.50
2019-05-11T08:39:53.075Z,980.55
2019-05-11T08:40:53.002Z,980.52
2019-05-11T08:41:52.928Z,980.51
2019-05-11T08:42:52.849Z,980.56
2019-05-11T08:43:52.774Z,980.51
2019-05-11T08:44:52.699Z,980.58
2019-05-11T08:45:52.622Z,980.70
2019-05-11T08:46:52.549Z,980.78
2019-05-11T08:47:52.476Z,980.76
2019-05-11T08:48:52.398Z,980.75
2019-05-11T08:49:52.320Z,980.79
2019-05-11T08:50:52.248Z,980.76
2019-05-11T08:51:52.269Z,980.78
2019-05-11T08:52:52.095Z,980.78
2019-05-11T08:53:52.018Z,980.80
2019-05-11T08:54:51.946Z,980.78
2019-05-11T08:55:51.869Z,980.79
2019-05-11T08:56:51.796Z,980.78
2019-05-11T08:57:51.817Z,980.76
2019-05-11T08:58:54.965Z,980.80
2019-05-11T08:59:51.569Z,980.85
2019-05-11T09:00:51.493Z,980.87
2019-05-11T09:01:51.423Z,980.92
2019-05-11T09:02:51.342Z,980.90
2019-05-11T09:03:51.269Z,980.91
2019-05-11T09:04:51.195Z,980.90
2019-05-11T09:05:51.119Z,980.86
2019-05-11T09:06:51.044Z,980.83
2019-05-11T09:07:50.971Z,980.75
2019-05-11T09:08:50.899Z,980.82
2019-05-11T09:09:50.821Z,980.84
2019-05-11T09:10:50.746Z,980.82
2019-05-11T09:11:50.677Z,980.96
2019-05-11T09:12:50.600Z,980.87
2019-05-11T09:13:50.523Z,980.89
2019-05-11T09:14:50.449Z,980.99
2019-05-11T09:15:50.376Z,981.01
2019-05-11T09:16:50.301Z,980.99
2019-05-11T09:17:50.230Z,981.13
2019-05-11T09:18:50.152Z,981.04
2019-05-11T09:19:50.080Z,981.12
2019-05-11T09:20:50.006Z,981.10
2019-05-11T09:21:49.930Z,981.06
2019-05-11T09:22:49.858Z,981.02
2019-05-11T09:23:49.783Z,981.03
2019-05-11T09:24:49.710Z,981.07
2019-05-11T09:25:49.636Z,981.22
2019-05-11T09:26:49.563Z,981.16
2019-05-11T09:27:49.488Z,981.20
2019-05-11T09:28:49.416Z,981.22
2019-05-11T09:29:49.342Z,981.29
2019-05-11T09:30:49.268Z,981.27
2019-05-11T09:31:49.195Z,981.32
2019-05-11T09:32:49.121Z,981.35
2019-05-11T09:33:49.046Z,981.28
2019-05-11T09:34:49.074Z,981.30
2019-05-11T09:35:53.114Z,981.39
2019-05-11T09:36:48.829Z,981.40
2019-05-11T09:37:48.753Z,981.44
2019-05-11T09:38:49.154Z,981.49
2019-05-11T09:39:48.613Z,981.50
2019-05-11T09:40:48.535Z,981.57
2019-05-11T09:41:48.951Z,981.54
2019-05-11T09:42:48.392Z,981.52
2019-05-11T09:43:48.517Z,981.56
2019-05-11T09:44:48.647Z,981.63
2019-05-11T09:45:51.143Z,981.76
2019-05-11T09:46:48.090Z,981.64
2019-05-11T09:47:48.017Z,981.71
2019-05-11T09:48:48.477Z,981.68
2019-05-11T09:49:50.878Z,981.65
2019-05-11T09:50:48.221Z,981.67
2019-05-11T09:51:48.329Z,981.65
2019-05-11T09:52:48.917Z,981.71
2019-05-11T09:53:48.414Z,981.59
2019-05-11T09:54:48.709Z,981.55
2019-05-11T09:55:48.082Z,981.66
2019-05-11T09:56:48.599Z,981.65
2019-05-11T09:57:48.650Z,981.69
2019-05-11T09:58:47.993Z,981.65
2019-05-11T09:59:47.747Z,981.76
2019-05-11T10:00:47.873Z,981.75
2019-05-11T10:01:48.314Z,981.74
2019-05-11T10:02:48.821Z,981.94
2019-05-11T10:03:48.117Z,981.79
2019-05-11T10:04:48.405Z,981.86
2019-05-11T10:05:48.667Z,981.82
2019-05-11T10:06:48.100Z,981.90
2019-05-11T10:07:48.460Z,981.77
2019-05-11T10:08:48.589Z,981.82
2019-05-11T10:09:47.831Z,981.83
2019-05-11T10:10:48.659Z,981.82
2019-05-11T10:11:47.993Z,981.72
2019-05-11T10:12:48.382Z,981.78
2019-05-11T10:13:47.754Z,981.87
2019-05-11T10:14:48.438Z,981.87
2019-05-11T10:16:00.931Z,981.90
2019-05-11T10:16:45.852Z,981.92
2019-05-11T10:17:48.144Z,982.00
2019-05-11T10:18:45.701Z,981.86
2019-05-11T10:19:47.545Z,981.94
2019-05-11T10:20:45.550Z,981.90
2019-05-11T10:21:45.474Z,981.89
2019-05-11T10:22:45.399Z,981.90
2019-05-11T10:23:45.325Z,981.95
2019-05-11T10:24:47.630Z,981.98
2019-05-11T10:25:45.172Z,981.89
2019-05-11T10:26:45.098Z,981.91
2019-05-11T10:27:45.024Z,981.95
2019-05-11T10:28:44.950Z,981.92
2019-05-11T10:29:44.874Z,982.00
2019-05-11T10:30:44.806Z,982.01
2019-05-11T10:31:44.726Z,981.98
2019-05-11T10:32:44.650Z,981.92
2019-05-11T10:33:44.575Z,981.98
2019-05-11T10:34:44.502Z,981.93
2019-05-11T10:35:44.427Z,981.95
2019-05-11T10:36:44.351Z,982.00
2019-05-11T10:37:44.278Z,982.01
2019-05-11T10:38:44.204Z,981.98
2019-05-11T10:39:44.130Z,982.00
2019-05-11T10:40:44.057Z,982.01
2019-05-11T10:41:43.982Z,981.99
2019-05-11T10:42:43.909Z,982.00
2019-05-11T10:43:43.836Z,982.02
2019-05-11T10:44:43.763Z,981.99
2019-05-11T10:45:43.688Z,982.00
2019-05-11T10:46:43.615Z,982.06
2019-05-11T10:47:43.543Z,981.96
2019-05-11T10:48:43.468Z,981.98
2019-05-11T10:49:43.394Z,982.01
2019-05-11T10:50:43.321Z,982.03
2019-05-11T10:51:43.247Z,982.00
2019-05-11T10:52:43.199Z,982.12
2019-05-11T10:53:43.098Z,982.10
2019-05-11T10:54:43.024Z,982.17
2019-05-11T10:55:42.954Z,982.09
2019-05-11T10:56:42.876Z,982.14
2019-05-11T10:57:42.803Z,982.08
2019-05-11T10:58:42.729Z,982.15
2019-05-11T10:59:42.654Z,982.11
2019-05-11T11:00:42.580Z,982.11
2019-05-11T11:01:42.506Z,982.15
2019-05-11T11:02:42.430Z,982.11
2019-05-11T11:03:42.356Z,982.20
2019-05-11T11:04:42.282Z,982.09
2019-05-11T11:05:42.207Z,982.15
2019-05-11T11:06:42.133Z,982.13
2019-05-11T11:07:42.059Z,982.10
2019-05-11T11:08:41.984Z,982.12
2019-05-11T11:09:41.911Z,982.10
2019-05-11T11:10:41.834Z,982.09
2019-05-11T11:11:41.762Z,982.08
2019-05-11T11:12:41.688Z,982.13
2019-05-11T11:13:41.612Z,982.14
2019-05-11T11:14:41.538Z,982.16
2019-05-11T11:15:41.466Z,982.22
2019-05-11T11:16:42.974Z,982.24
2019-05-11T11:17:41.314Z,982.33
2019-05-11T11:18:41.241Z,982.38
2019-05-11T11:19:41.166Z,982.35
2019-05-11T11:20:41.092Z,982.37
2019-05-11T11:21:41.017Z,982.39
2019-05-11T11:22:44.023Z,982.38
2019-05-11T11:23:40.868Z,982.41
2019-05-11T11:24:40.795Z,982.37
2019-05-11T11:25:40.720Z,982.41
2019-05-11T11:26:40.645Z,982.47
2019-05-11T11:27:40.573Z,982.44
2019-05-11T11:28:40.503Z,982.42
2019-05-11T11:29:40.428Z,982.42
2019-05-11T11:30:40.349Z,982.41
2019-05-11T11:31:40.275Z,982.45
2019-05-11T11:32:40.203Z,982.45
2019-05-11T11:33:40.128Z,982.41
2019-05-11T11:34:40.053Z,982.40
2019-05-11T11:35:39.980Z,982.45
2019-05-11T11:36:39.906Z,982.44
2019-05-11T11:37:39.831Z,982.45
2019-05-11T11:38:39.758Z,982.44
2019-05-11T11:39:39.684Z,982.45
2019-05-11T11:40:42.680Z,982.48
2019-05-11T11:41:39.538Z,982.50
2019-05-11T11:42:39.462Z,982.50
2019-05-11T11:43:39.389Z,982.46
2019-05-11T11:44:39.315Z,982.50
2019-05-11T11:45:39.241Z,982.50
2019-05-11T11:46:50.952Z,982.46
2019-05-11T11:47:39.094Z,982.45
2019-05-11T11:48:39.019Z,982.43
2019-05-11T11:49:38.944Z,982.43
2019-05-11T11:50:38.871Z,982.52
2019-05-11T11:51:38.798Z,982.59
2019-05-11T11:52:38.722Z,982.56
2019-05-11T11:53:38.647Z,982.54
2019-05-11T11:54:38.776Z,982.61
2019-05-11T11:55:39.114Z,982.58
2019-05-11T11:56:38.429Z,982.57
2019-05-11T11:57:38.354Z,982.57
2019-05-11T11:58:38.282Z,982.61
2019-05-11T11:59:38.663Z,982.57
2019-05-11T12:00:39.165Z,982.60
2019-05-11T12:01:38.599Z,982.59
2019-05-11T12:02:38.777Z,982.67
2019-05-11T12:03:38.123Z,982.70
2019-05-11T12:04:38.881Z,982.71
2019-05-11T12:05:38.566Z,982.70
2019-05-11T12:07:40.445Z,982.75
2019-05-11T12:08:38.964Z,982.78
2019-05-11T12:09:37.873Z,982.79
2019-05-11T12:10:38.052Z,982.75
2019-05-11T12:11:38.110Z,982.74
2019-05-11T12:12:38.651Z,982.77
2019-05-11T12:13:38.405Z,982.86
2019-05-11T12:14:38.477Z,982.88
2019-05-11T12:15:38.777Z,982.92
2019-05-11T12:16:38.867Z,982.94
2019-05-11T12:17:37.671Z,982.96
2019-05-11T12:18:38.088Z,982.93
2019-05-11T12:19:38.260Z,982.98
2019-05-11T12:20:38.758Z,983.05
2019-05-11T12:21:37.935Z,983.06
2019-05-11T12:22:38.550Z,983.15
2019-05-11T12:23:38.174Z,983.14
2019-05-11T12:24:37.554Z,983.18
2019-05-11T12:25:40.273Z,983.15
2019-05-11T12:26:36.209Z,983.20
2019-05-11T12:35:44.675Z,983.31
2019-05-11T12:36:44.599Z,983.32
2019-05-11T12:37:48.505Z,983.29
2019-05-11T12:41:24.847Z,983.34
2019-05-11T12:42:24.769Z,983.38
2019-05-11T12:44:24.617Z,983.42
2019-05-11T12:45:29.390Z,983.44